createdAt,value
2022-11-26T00:01:38.766Z,87.90
2022-11-26T00:04:06.582Z,87.80
2022-11-26T00:06:37.590Z,86.80
2022-11-26T00:09:05.896Z,87.30
2022-11-26T00:11:33.128Z,87.50
2022-11-26T00:13:59.816Z,87.10
2022-11-26T00:16:27.065Z,86.70
2022-11-26T00:18:53.687Z,86.40
2022-11-26T00:21:21.781Z,86.50
2022-11-26T00:23:48.848Z,86.20
2022-11-26T00:26:17.221Z,87.00
2022-11-26T00:29:02.161Z,87.10
2022-11-26T00:31:29.026Z,85.50
2022-11-26T00:33:55.964Z,86.40
2022-11-26T00:36:27.328Z,86.00
2022-11-26T00:38:56.200Z,86.40
2022-11-26T00:41:23.573Z,86.60
2022-11-26T00:43:50.527Z,87.10
2022-11-26T00:46:18.466Z,87.50
2022-11-26T00:48:45.174Z,87.20
2022-11-26T00:51:14.066Z,87.10
2022-11-26T00:53:41.065Z,87.10
2022-11-26T00:56:12.755Z,87.00
2022-11-26T00:58:39.360Z,86.90
2022-11-26T01:01:06.042Z,86.70
2022-11-26T01:03:32.742Z,87.00
2022-11-26T01:05:59.920Z,86.60
2022-11-26T01:08:29.934Z,86.50
2022-11-26T01:10:58.243Z,86.60
2022-11-26T01:13:25.191Z,87.20
2022-11-26T01:15:51.850Z,87.20
2022-11-26T01:18:21.092Z,86.60
2022-11-26T01:20:47.888Z,87.10
2022-11-26T01:23:16.026Z,86.80
2022-11-26T01:25:42.995Z,86.60
2022-11-26T01:28:27.628Z,85.70
2022-11-26T01:30:54.234Z,86.30
2022-11-26T01:33:20.832Z,85.60
2022-11-26T01:35:47.488Z,85.70
2022-11-26T01:38:14.688Z,86.40
2022-11-26T01:40:41.307Z,87.00
2022-11-26T01:43:14.547Z,87.30
2022-11-26T01:45:41.295Z,87.10
2022-11-26T01:48:25.867Z,87.40
2022-11-26T01:50:54.772Z,87.40
2022-11-26T01:53:27.960Z,87.00
2022-11-26T01:55:56.744Z,87.20
2022-11-26T01:58:25.363Z,87.00
2022-11-26T02:00:52.161Z,86.90
2022-11-26T02:03:22.636Z,86.40
2022-11-26T02:05:54.594Z,86.40
2022-11-26T02:08:21.360Z,86.30
2022-11-26T02:10:48.300Z,86.50
2022-11-26T02:13:14.961Z,86.30
2022-11-26T02:15:47.022Z,86.50
2022-11-26T02:18:14.271Z,87.00
2022-11-26T02:20:41.833Z,87.00
2022-11-26T02:23:17.603Z,86.30
2022-11-26T02:26:02.674Z,86.80
2022-11-26T02:28:48.143Z,86.80
2022-11-26T02:31:30.154Z,87.20
2022-11-26T02:33:59.820Z,87.10
2022-11-26T02:36:35.238Z,87.20
2022-11-26T02:39:12.464Z,87.10
2022-11-26T02:41:46.248Z,87.10
2022-11-26T02:44:14.628Z,86.90
2022-11-26T02:46:41.870Z,86.80
2022-11-26T02:49:09.593Z,86.70
2022-11-26T02:51:36.644Z,86.90
2022-11-26T02:54:05.224Z,87.00
2022-11-26T02:56:31.879Z,87.20
2022-11-26T02:58:59.479Z,87.50
2022-11-26T03:01:35.499Z,87.30
2022-11-26T03:04:05.364Z,87.30
2022-11-26T03:06:32.867Z,87.10
2022-11-26T03:08:59.731Z,87.10
2022-11-26T03:11:26.763Z,87.10
2022-11-26T03:13:53.503Z,87.00
2022-11-26T03:16:20.323Z,86.90
2022-11-26T03:18:47.085Z,86.60
2022-11-26T03:21:13.686Z,86.90
2022-11-26T03:23:40.386Z,87.20
2022-11-26T03:26:07.024Z,87.10
2022-11-26T03:28:33.614Z,87.10
2022-11-26T03:31:00.337Z,87.00
2022-11-26T03:33:26.978Z,87.70
2022-11-26T03:35:53.604Z,88.00
2022-11-26T03:38:20.205Z,87.60
2022-11-26T03:40:55.158Z,87.40
2022-11-26T03:43:21.774Z,87.10
2022-11-26T03:45:48.413Z,87.50
2022-11-26T03:48:15.067Z,87.60
2022-11-26T03:50:41.679Z,87.60
2022-11-26T03:53:08.538Z,87.90
2022-11-26T03:55:35.223Z,88.10
2022-11-26T03:58:01.844Z,88.20
2022-11-26T04:00:28.454Z,87.80
2022-11-26T04:02:55.235Z,87.30
2022-11-26T04:05:21.910Z,87.00
2022-11-26T04:07:48.541Z,86.90
2022-11-26T04:10:15.263Z,86.60
2022-11-26T04:12:41.855Z,86.60
2022-11-26T04:15:08.849Z,86.70
2022-11-26T04:17:35.446Z,86.70
2022-11-26T04:20:02.041Z,86.20
2022-11-26T04:22:28.626Z,85.90
2022-11-26T04:24:55.225Z,86.70
2022-11-26T04:27:21.831Z,86.30
2022-11-26T04:29:48.423Z,86.80
2022-11-26T04:32:15.014Z,86.60
2022-11-26T04:34:41.616Z,86.70
2022-11-26T04:37:08.212Z,86.50
2022-11-26T04:39:35.647Z,86.40
2022-11-26T04:42:02.429Z,86.70
2022-11-26T04:44:29.050Z,86.30
2022-11-26T04:46:55.643Z,86.30
2022-11-26T04:49:22.302Z,86.60
2022-11-26T04:51:48.903Z,86.50
2022-11-26T04:54:15.528Z,86.50
2022-11-26T04:56:42.212Z,86.50
2022-11-26T04:59:08.835Z,86.90
2022-11-26T05:01:35.527Z,87.00
2022-11-26T05:04:02.342Z,86.90
2022-11-26T05:06:28.934Z,86.60
2022-11-26T05:08:55.575Z,86.50
2022-11-26T05:11:22.162Z,86.80
2022-11-26T05:13:48.847Z,87.10
2022-11-26T05:16:15.475Z,87.00
2022-11-26T05:18:42.731Z,87.60
2022-11-26T05:21:09.338Z,87.50
2022-11-26T05:23:35.937Z,87.90
2022-11-26T05:26:02.549Z,87.90
2022-11-26T05:28:29.182Z,87.80
2022-11-26T05:31:00.092Z,88.00
2022-11-26T05:33:26.821Z,88.20
2022-11-26T05:35:53.529Z,88.00
2022-11-26T05:38:20.179Z,88.40
2022-11-26T05:40:46.926Z,88.20
2022-11-26T05:43:13.565Z,88.10
2022-11-26T05:45:40.222Z,88.40
2022-11-26T05:48:06.877Z,87.80
2022-11-26T05:50:33.737Z,87.40
2022-11-26T05:53:00.453Z,87.40
2022-11-26T05:55:27.116Z,87.30
2022-11-26T05:57:53.719Z,87.70
2022-11-26T06:00:20.378Z,87.80
2022-11-26T06:02:47.116Z,87.90
2022-11-26T06:05:13.891Z,87.90
2022-11-26T06:07:44.625Z,88.10
2022-11-26T06:10:12.229Z,88.10
2022-11-26T06:12:38.846Z,88.10
2022-11-26T06:15:05.787Z,88.20
2022-11-26T06:17:32.623Z,88.00
2022-11-26T06:19:59.785Z,88.00
2022-11-26T06:22:26.415Z,88.30
2022-11-26T06:24:53.014Z,88.20
2022-11-26T06:27:19.594Z,88.50
2022-11-26T06:29:46.194Z,88.60
2022-11-26T06:32:12.878Z,88.60
2022-11-26T06:34:42.519Z,88.50
2022-11-26T06:37:10.465Z,88.40
2022-11-26T06:39:37.161Z,88.40
2022-11-26T06:42:04.179Z,87.70
2022-11-26T06:44:30.832Z,87.60
2022-11-26T06:46:57.419Z,88.00
2022-11-26T06:49:24.223Z,88.40
2022-11-26T06:51:50.978Z,88.40
2022-11-26T06:54:17.643Z,88.70
2022-11-26T06:56:44.603Z,88.30
2022-11-26T06:59:11.236Z,88.90
2022-11-26T07:01:38.167Z,88.80
2022-11-26T07:04:05.168Z,88.60
2022-11-26T07:06:32.851Z,88.50
2022-11-26T07:09:02.222Z,88.60
2022-11-26T07:11:28.982Z,88.00
2022-11-26T07:13:55.726Z,88.30
2022-11-26T07:16:22.417Z,88.70
2022-11-26T07:18:50.022Z,88.20
2022-11-26T07:21:16.685Z,88.10
2022-11-26T07:23:43.383Z,87.90
2022-11-26T07:26:11.105Z,87.80
2022-11-26T07:28:37.749Z,88.20
2022-11-26T07:31:08.127Z,87.90
2022-11-26T07:33:37.109Z,87.90
2022-11-26T07:36:05.265Z,87.20
2022-11-26T07:38:32.134Z,87.50
2022-11-26T07:41:03.336Z,87.50
2022-11-26T07:43:30.271Z,87.50
2022-11-26T07:45:57.021Z,87.90
2022-11-26T07:48:23.675Z,87.70
2022-11-26T07:50:50.280Z,85.90
2022-11-26T07:53:16.912Z,86.20
2022-11-26T07:55:43.521Z,86.20
2022-11-26T07:58:10.113Z,86.60
2022-11-26T08:00:36.708Z,86.50
2022-11-26T08:03:03.405Z,87.60
2022-11-26T08:05:30.072Z,87.00
2022-11-26T08:07:56.756Z,87.00
2022-11-26T08:10:23.402Z,87.10
2022-11-26T08:12:50.063Z,87.10
2022-11-26T08:15:16.691Z,87.40
2022-11-26T08:17:43.277Z,86.70
2022-11-26T08:20:10.198Z,87.00
2022-11-26T08:22:36.808Z,86.90
2022-11-26T08:25:03.482Z,87.00
2022-11-26T08:27:31.681Z,87.20
2022-11-26T08:29:58.286Z,87.60
2022-11-26T08:32:24.928Z,87.90
2022-11-26T08:34:51.732Z,87.90
2022-11-26T08:37:18.357Z,88.10
2022-11-26T08:39:44.967Z,88.10
2022-11-26T08:42:11.570Z,88.30
2022-11-26T08:44:38.594Z,87.60
2022-11-26T08:47:05.316Z,87.50
2022-11-26T08:49:32.070Z,87.20
2022-11-26T08:51:58.768Z,87.20
2022-11-26T08:54:25.536Z,87.20
2022-11-26T08:56:52.371Z,87.00
2022-11-26T08:59:20.648Z,86.90
2022-11-26T09:01:47.331Z,86.00
2022-11-26T09:04:14.120Z,86.20
2022-11-26T09:06:41.437Z,85.70
2022-11-26T09:09:14.538Z,85.50
2022-11-26T09:11:49.518Z,86.00
2022-11-26T09:14:18.505Z,84.90
2022-11-26T09:16:45.233Z,84.60
2022-11-26T09:19:12.652Z,84.50
2022-11-26T09:21:39.275Z,84.30
2022-11-26T09:24:06.103Z,82.90
2022-11-26T09:26:33.280Z,83.30
2022-11-26T09:28:59.929Z,81.90
2022-11-26T09:31:26.698Z,81.90
2022-11-26T09:33:56.750Z,80.70
2022-11-26T09:36:23.362Z,83.10
2022-11-26T09:38:53.199Z,80.70
2022-11-26T09:41:19.844Z,80.10
2022-11-26T09:43:58.791Z,80.40
2022-11-26T09:46:41.007Z,80.80
2022-11-26T09:49:18.209Z,79.40
2022-11-26T09:51:46.775Z,79.30
2022-11-26T09:54:18.550Z,81.20
2022-11-26T09:56:45.207Z,81.00
2022-11-26T09:59:13.083Z,79.30
2022-11-26T10:01:40.638Z,80.90
2022-11-26T10:04:08.315Z,81.40
2022-11-26T10:06:39.302Z,79.50
2022-11-26T10:09:22.668Z,77.90
2022-11-26T10:11:56.015Z,78.40
2022-11-26T10:14:38.382Z,78.60
2022-11-26T10:17:20.259Z,78.70
2022-11-26T10:19:52.787Z,77.70
2022-11-26T10:22:24.470Z,76.90
2022-11-26T10:24:51.100Z,74.80
2022-11-26T10:27:18.820Z,74.60
2022-11-26T10:29:50.803Z,75.50
2022-11-26T10:32:25.024Z,77.00
2022-11-26T10:34:52.862Z,76.10
2022-11-26T10:37:20.675Z,77.30
2022-11-26T10:39:47.713Z,78.00
2022-11-26T10:42:21.873Z,78.70
2022-11-26T10:44:49.432Z,78.50
2022-11-26T10:47:24.163Z,74.50
2022-11-26T10:49:51.876Z,76.70
2022-11-26T10:52:23.281Z,75.10
2022-11-26T10:55:07.505Z,74.10
2022-11-26T10:57:35.607Z,74.20
2022-11-26T11:00:02.213Z,75.40
2022-11-26T11:02:31.151Z,74.80
2022-11-26T11:04:59.069Z,73.30
2022-11-26T11:07:37.922Z,74.60
2022-11-26T11:10:13.104Z,74.90
2022-11-26T11:12:40.483Z,73.80
2022-11-26T11:15:20.851Z,75.40
2022-11-26T11:17:54.733Z,75.90
2022-11-26T11:20:47.480Z,76.70
2022-11-26T11:23:14.050Z,76.60
2022-11-26T11:25:43.671Z,76.10
2022-11-26T11:28:13.351Z,76.10
2022-11-26T11:30:41.087Z,77.00
2022-11-26T11:33:24.228Z,76.80
2022-11-26T11:35:58.243Z,77.80
2022-11-26T11:38:26.394Z,79.00
2022-11-26T11:40:53.168Z,78.10
2022-11-26T11:43:22.494Z,78.70
2022-11-26T11:45:53.464Z,78.60
2022-11-26T11:48:43.514Z,79.10
2022-11-26T11:51:28.838Z,79.40
2022-11-26T11:54:03.724Z,79.40
2022-11-26T12:02:45.983Z,78.00
2022-11-26T12:05:35.871Z,78.10
2022-11-26T12:08:17.395Z,80.10
2022-11-26T12:10:59.091Z,77.60
2022-11-26T12:13:26.688Z,78.60
2022-11-26T12:16:00.229Z,79.60
2022-11-26T12:19:39.506Z,79.40
2022-11-26T12:22:20.418Z,79.50
2022-11-26T12:25:03.133Z,78.50
2022-11-26T12:27:56.253Z,79.30
2022-11-26T12:30:25.965Z,78.30
2022-11-26T12:33:12.857Z,79.60
2022-11-26T12:35:42.032Z,78.20
2022-11-26T12:38:21.794Z,77.00
2022-11-26T12:40:51.247Z,76.60
2022-11-26T12:43:20.034Z,76.90
2022-11-26T12:45:52.597Z,77.50
2022-11-26T12:48:28.035Z,75.20
2022-11-26T12:51:00.704Z,76.10
2022-11-26T12:53:41.474Z,75.60
2022-11-26T12:56:19.107Z,75.40
2022-11-26T12:58:54.726Z,75.70
2022-11-26T13:01:24.055Z,74.60
2022-11-26T13:03:59.545Z,74.60
2022-11-26T13:06:45.840Z,74.00
2022-11-26T13:09:21.094Z,74.90
2022-11-26T13:12:06.765Z,71.80
2022-11-26T13:14:33.402Z,71.50
2022-11-26T13:17:05.026Z,69.00
2022-11-26T13:19:44.819Z,65.50
2022-11-26T13:22:26.910Z,65.90
2022-11-26T13:24:53.528Z,67.00
2022-11-26T13:27:25.131Z,67.30
2022-11-26T13:29:58.468Z,66.90
2022-11-26T13:32:28.100Z,68.00
2022-11-26T13:34:57.807Z,68.20
2022-11-26T13:37:33.710Z,61.60
2022-11-26T13:40:08.562Z,54.40
2022-11-26T13:42:42.161Z,52.30
2022-11-26T13:45:08.747Z,48.70
2022-11-26T13:48:04.831Z,49.20
2022-11-26T13:50:43.665Z,49.10
2022-11-26T13:53:16.862Z,48.50
2022-11-26T13:55:49.215Z,45.90
2022-11-26T13:58:22.426Z,45.20
2022-11-26T14:00:49.220Z,44.30
2022-11-26T14:03:34.280Z,43.60
2022-11-26T14:06:06.544Z,43.60
2022-11-26T14:08:36.479Z,42.70
2022-11-26T14:11:03.741Z,43.20
2022-11-26T14:13:30.708Z,41.50
2022-11-26T14:19:59.005Z,42.50
2022-11-26T14:22:27.509Z,41.50
2022-11-26T14:24:55.923Z,41.70
2022-11-26T14:27:23.783Z,41.60
2022-11-26T14:30:13.028Z,43.50
2022-11-26T14:32:41.580Z,43.50
2022-11-26T14:35:34.084Z,43.90
2022-11-26T14:38:02.702Z,45.00
2022-11-26T14:40:30.734Z,44.30
2022-11-26T14:43:15.340Z,43.90
2022-11-26T14:45:43.280Z,45.00
2022-11-26T14:48:26.638Z,46.00
2022-11-26T14:50:54.331Z,46.80
2022-11-26T14:53:21.960Z,46.80
2022-11-26T14:55:49.340Z,46.60
2022-11-26T14:58:18.871Z,46.00
2022-11-26T15:01:00.302Z,46.90
2022-11-26T15:03:27.036Z,50.40
2022-11-26T15:05:53.765Z,54.30
2022-11-26T15:08:23.858Z,56.80
2022-11-26T15:11:07.094Z,58.50
2022-11-26T15:13:41.601Z,61.70
2022-11-26T15:16:26.810Z,64.80
2022-11-26T15:18:54.543Z,67.00
2022-11-26T15:21:22.879Z,68.50
2022-11-26T15:23:50.075Z,69.60
2022-11-26T15:26:18.372Z,70.40
2022-11-26T15:28:45.230Z,70.70
2022-11-26T15:31:11.991Z,71.20
2022-11-26T15:33:39.098Z,72.20
2022-11-26T15:36:06.921Z,72.90
2022-11-26T15:38:34.924Z,72.80
2022-11-26T15:41:01.889Z,74.20
2022-11-26T15:43:31.319Z,74.20
2022-11-26T15:46:03.319Z,74.00
2022-11-26T15:48:50.892Z,75.00
2022-11-26T15:51:35.471Z,75.90
2022-11-26T15:54:04.040Z,75.70
2022-11-26T15:56:32.449Z,75.90
2022-11-26T15:59:00.618Z,76.50
2022-11-26T16:01:30.642Z,77.00
2022-11-26T16:03:57.385Z,76.50
2022-11-26T16:06:32.064Z,75.20
2022-11-26T16:09:21.292Z,74.90
2022-11-26T16:11:57.519Z,75.30
2022-11-26T16:14:35.658Z,75.50
2022-11-26T16:17:08.296Z,75.70
2022-11-26T16:19:35.753Z,75.70
2022-11-26T16:22:03.366Z,75.90
2022-11-26T16:24:34.084Z,75.90
2022-11-26T16:27:02.352Z,75.70
2022-11-26T16:29:29.753Z,75.80
2022-11-26T16:31:56.495Z,76.40
2022-11-26T16:34:25.472Z,76.60
2022-11-26T16:36:58.918Z,77.00
2022-11-26T16:39:29.987Z,76.90
2022-11-26T16:41:57.285Z,75.90
2022-11-26T16:44:23.899Z,76.50
2022-11-26T16:46:51.212Z,75.50
2022-11-26T16:49:17.819Z,76.30
2022-11-26T16:51:44.428Z,76.50
2022-11-26T16:54:11.090Z,76.60
2022-11-26T16:56:38.261Z,75.60
2022-11-26T16:59:05.913Z,75.90
2022-11-26T17:01:33.220Z,77.20
2022-11-26T17:03:59.891Z,77.10
2022-11-26T17:06:29.087Z,76.70
2022-11-26T17:08:56.437Z,76.90
2022-11-26T17:11:23.741Z,77.70
2022-11-26T17:13:50.574Z,78.10
2022-11-26T17:16:18.472Z,77.70
2022-11-26T17:18:45.268Z,77.00
2022-11-26T17:21:12.176Z,77.00
2022-11-26T17:23:38.795Z,77.30
2022-11-26T17:26:13.127Z,78.70
2022-11-26T17:28:39.724Z,79.80
2022-11-26T17:31:06.631Z,79.50
2022-11-26T17:33:33.255Z,79.50
2022-11-26T17:35:59.876Z,79.20
2022-11-26T17:38:26.471Z,79.20
2022-11-26T17:40:53.064Z,79.70
2022-11-26T17:43:19.683Z,80.10
2022-11-26T17:45:46.358Z,79.50
2022-11-26T17:48:13.836Z,80.70
2022-11-26T17:50:40.917Z,81.40
2022-11-26T17:53:07.530Z,81.20
2022-11-26T17:55:34.220Z,80.90
2022-11-26T17:58:00.827Z,81.20
2022-11-26T18:00:28.708Z,81.70
2022-11-26T18:02:55.975Z,81.90
2022-11-26T18:05:22.814Z,81.40
2022-11-26T18:07:52.519Z,81.10
2022-11-26T18:10:20.584Z,81.00
2022-11-26T18:12:47.299Z,80.80
2022-11-26T18:15:21.287Z,81.20
2022-11-26T18:17:50.653Z,80.90
2022-11-26T18:20:18.250Z,79.80
2022-11-26T18:22:46.735Z,79.50
2022-11-26T18:25:13.826Z,80.70
2022-11-26T18:27:40.542Z,81.10
2022-11-26T18:30:07.542Z,81.00
2022-11-26T18:32:34.168Z,81.40
2022-11-26T18:35:01.253Z,80.70
2022-11-26T18:37:27.850Z,80.70
2022-11-26T18:39:54.500Z,80.70
2022-11-26T18:42:36.615Z,81.00
2022-11-26T18:45:04.275Z,81.40
2022-11-26T18:47:30.877Z,81.00
2022-11-26T18:49:57.539Z,79.80
2022-11-26T18:52:24.138Z,78.90
2022-11-26T18:54:50.837Z,79.00
2022-11-26T18:57:17.447Z,79.70
2022-11-26T18:59:44.744Z,80.10
2022-11-26T19:02:11.450Z,79.40
2022-11-26T19:04:38.895Z,79.60
2022-11-26T19:07:05.535Z,79.70
2022-11-26T19:09:32.200Z,79.60
2022-11-26T19:11:58.808Z,80.60
2022-11-26T19:14:25.459Z,80.20
2022-11-26T19:16:52.157Z,82.10
2022-11-26T19:19:18.940Z,82.20
2022-11-26T19:21:45.582Z,81.90
2022-11-26T19:24:12.638Z,81.00
2022-11-26T19:26:41.190Z,80.90
2022-11-26T19:29:09.149Z,81.10
2022-11-26T19:31:38.824Z,80.30
2022-11-26T19:34:06.622Z,80.50
2022-11-26T19:36:33.449Z,81.00
2022-11-26T19:39:00.658Z,81.40
2022-11-26T19:41:27.759Z,81.70
2022-11-26T19:43:54.848Z,81.80
2022-11-26T19:46:22.928Z,81.40
2022-11-26T19:48:50.258Z,81.60
2022-11-26T19:51:17.648Z,80.70
2022-11-26T19:53:48.296Z,81.60
2022-11-26T19:56:16.719Z,80.50
2022-11-26T19:58:43.314Z,80.30
2022-11-26T20:01:12.037Z,80.60
2022-11-26T20:03:38.682Z,81.70
2022-11-26T20:06:06.432Z,81.50
2022-11-26T20:08:33.598Z,81.60
2022-11-26T20:11:04.056Z,79.40
2022-11-26T20:13:30.663Z,78.40
2022-11-26T20:15:57.282Z,77.90
2022-11-26T20:18:23.932Z,80.10
2022-11-26T20:21:00.749Z,81.00
2022-11-26T20:23:27.696Z,79.90
2022-11-26T20:25:54.623Z,81.60
2022-11-26T20:28:21.514Z,81.20
2022-11-26T20:30:48.220Z,81.50
2022-11-26T20:33:16.224Z,80.40
2022-11-26T20:35:43.497Z,81.00
2022-11-26T20:38:10.196Z,81.30
2022-11-26T20:40:39.452Z,81.10
2022-11-26T20:43:06.034Z,81.70
2022-11-26T20:45:32.632Z,82.00
2022-11-26T20:47:59.289Z,81.60
2022-11-26T20:50:25.897Z,81.20
2022-11-26T20:52:52.533Z,81.40
2022-11-26T20:55:21.879Z,80.90
2022-11-26T20:57:49.031Z,82.00
2022-11-26T21:00:17.058Z,81.30
2022-11-26T21:02:44.561Z,80.40
2022-11-26T21:05:11.671Z,79.70
2022-11-26T21:07:38.328Z,81.10
2022-11-26T21:10:05.345Z,81.30
2022-11-26T21:12:32.052Z,79.80
2022-11-26T21:14:58.690Z,80.10
2022-11-26T21:17:25.484Z,80.50
2022-11-26T21:19:52.200Z,81.00
2022-11-26T21:22:18.793Z,81.90
2022-11-26T21:24:45.423Z,81.40
2022-11-26T21:27:12.028Z,80.70
2022-11-26T21:29:38.936Z,80.90
2022-11-26T21:32:05.982Z,81.50
2022-11-26T21:34:32.906Z,80.30
2022-11-26T21:37:02.880Z,79.50
2022-11-26T21:39:29.554Z,80.70
2022-11-26T21:41:56.189Z,81.10
2022-11-26T21:44:22.799Z,80.60
2022-11-26T21:46:49.599Z,79.80
2022-11-26T21:49:17.188Z,82.10
2022-11-26T21:51:43.900Z,81.30
2022-11-26T21:54:10.640Z,81.20
2022-11-26T21:56:37.431Z,81.60
2022-11-26T21:59:04.442Z,81.10
2022-11-26T22:01:35.176Z,81.60
2022-11-26T22:04:04.399Z,81.30
2022-11-26T22:06:31.307Z,81.50
2022-11-26T22:08:58.153Z,81.40
2022-11-26T22:11:29.082Z,80.90
2022-11-26T22:13:55.865Z,81.80
2022-11-26T22:16:23.616Z,81.70
2022-11-26T22:18:50.813Z,81.00
2022-11-26T22:21:19.005Z,81.10
2022-11-26T22:23:45.653Z,80.80
2022-11-26T22:26:12.352Z,81.10
2022-11-26T22:28:39.062Z,80.40
2022-11-26T22:31:13.850Z,80.00
2022-11-26T22:33:40.715Z,80.10
2022-11-26T22:36:07.593Z,80.00
2022-11-26T22:38:35.139Z,79.60
2022-11-26T22:41:02.869Z,80.10
2022-11-26T22:43:29.835Z,80.80
2022-11-26T22:45:56.617Z,80.00
2022-11-26T22:48:23.381Z,80.10
2022-11-26T22:50:51.013Z,79.60
2022-11-26T22:53:17.598Z,79.60
2022-11-26T22:55:51.392Z,79.70
2022-11-26T22:58:18.868Z,78.50
2022-11-26T23:00:45.764Z,78.80
2022-11-26T23:03:12.624Z,77.90
2022-11-26T23:05:39.460Z,78.50
2022-11-26T23:08:06.071Z,80.10
2022-11-26T23:10:32.704Z,80.40
2022-11-26T23:12:59.343Z,81.20
2022-11-26T23:15:26.064Z,81.40
2022-11-26T23:17:52.672Z,80.00
2022-11-26T23:20:19.411Z,80.50
2022-11-26T23:22:46.019Z,80.20
2022-11-26T23:25:12.635Z,80.30
2022-11-26T23:27:39.270Z,80.00
2022-11-26T23:30:06.259Z,80.30
2022-11-26T23:32:32.876Z,79.90
2022-11-26T23:34:59.570Z,79.80
2022-11-26T23:37:26.266Z,79.20
2022-11-26T23:39:52.895Z,78.70
2022-11-26T23:42:19.608Z,79.90
2022-11-26T23:44:46.251Z,79.60
2022-11-26T23:47:12.886Z,79.60
2022-11-26T23:49:39.787Z,78.90
2022-11-26T23:52:06.626Z,78.40
2022-11-26T23:54:33.222Z,77.70
2022-11-26T23:56:59.851Z,78.20
2022-11-26T23:59:26.473Z,79.20
